Terminal Aerodrome Forecast
Issued by NWS Memphis, TN

Home | Current Version | Previous Version | Text Only | Print | Product List | Glossary On
Versions: 1 2 3 4 5 6 7 8 9 10 11 12 13 14 15 16 17 18 19 20
000
FTUS44 KMEG 021726
TAFMKL
TAF
KMKL 021726Z 0218/0318 09010KT P6SM OVC035
     FM030200 05005KT 6SM BR VCSH OVC025
     FM030600 13003KT 5SM -RA BR OVC009 WS020/21035KT
     FM031200 18004KT P6SM OVC007=

USA.gov is the U.S. government's official web portal to all federal, state and local government web resources and services.